sensor_id;sensor_type;location;lat;lon;timestamp;P1;durP1;ratioP1;P2;durP2;ratioP2
46116;SDS011;32591;48.102;11.772;2023-02-19T00:00:11;1.50;;;0.90;;
46116;SDS011;32591;48.102;11.772;2023-02-19T00:02:40;2.15;;;1.10;;
46116;SDS011;32591;48.102;11.772;2023-02-19T00:05:09;2.28;;;1.27;;
46116;SDS011;32591;48.102;11.772;2023-02-19T00:07:36;1.85;;;1.00;;
46116;SDS011;32591;48.102;11.772;2023-02-19T00:10:03;2.20;;;1.23;;
46116;SDS011;32591;48.102;11.772;2023-02-19T00:12:30;2.78;;;1.40;;
46116;SDS011;32591;48.102;11.772;2023-02-19T00:14:59;2.47;;;1.30;;
46116;SDS011;32591;48.102;11.772;2023-02-19T00:17:26;2.10;;;1.02;;
46116;SDS011;32591;48.102;11.772;2023-02-19T00:19:53;2.45;;;1.10;;
46116;SDS011;32591;48.102;11.772;2023-02-19T00:22:20;1.90;;;1.13;;
46116;SDS011;32591;48.102;11.772;2023-02-19T00:24:47;1.85;;;1.10;;
46116;SDS011;32591;48.102;11.772;2023-02-19T00:27:14;2.95;;;1.92;;
46116;SDS011;32591;48.102;11.772;2023-02-19T00:29:42;1.88;;;1.20;;
46116;SDS011;32591;48.102;11.772;2023-02-19T00:32:10;2.35;;;1.50;;
46116;SDS011;32591;48.102;11.772;2023-02-19T00:34:37;2.28;;;1.35;;
46116;SDS011;32591;48.102;11.772;2023-02-19T00:39:30;2.35;;;1.33;;
46116;SDS011;32591;48.102;11.772;2023-02-19T00:41:58;1.10;;;1.00;;
46116;SDS011;32591;48.102;11.772;2023-02-19T00:44:25;2.45;;;1.30;;
46116;SDS011;32591;48.102;11.772;2023-02-19T00:46:52;1.35;;;1.10;;
46116;SDS011;32591;48.102;11.772;2023-02-19T00:49:21;1.75;;;1.20;;
46116;SDS011;32591;48.102;11.772;2023-02-19T00:51:49;3.63;;;1.23;;
46116;SDS011;32591;48.102;11.772;2023-02-19T00:54:18;2.05;;;1.27;;
46116;SDS011;32591;48.102;11.772;2023-02-19T00:56:46;2.95;;;1.60;;
46116;SDS011;32591;48.102;11.772;2023-02-19T00:59:13;2.00;;;1.02;;
46116;SDS011;32591;48.102;11.772;2023-02-19T01:01:41;1.55;;;0.93;;
46116;SDS011;32591;48.102;11.772;2023-02-19T01:04:09;1.70;;;1.10;;
46116;SDS011;32591;48.102;11.772;2023-02-19T01:06:37;2.20;;;1.48;;
46116;SDS011;32591;48.102;11.772;2023-02-19T01:09:05;2.45;;;1.33;;
46116;SDS011;32591;48.102;11.772;2023-02-19T01:11:32;2.42;;;1.30;;
46116;SDS011;32591;48.102;11.772;2023-02-19T01:13:59;3.33;;;1.48;;
46116;SDS011;32591;48.102;11.772;2023-02-19T01:16:27;1.95;;;1.15;;
46116;SDS011;32591;48.102;11.772;2023-02-19T01:18:55;1.33;;;1.02;;
46116;SDS011;32591;48.102;11.772;2023-02-19T01:21:24;2.17;;;1.27;;
46116;SDS011;32591;48.102;11.772;2023-02-19T01:23:54;1.50;;;1.00;;
46116;SDS011;32591;48.102;11.772;2023-02-19T01:26:22;2.35;;;1.10;;
46116;SDS011;32591;48.102;11.772;2023-02-19T01:28:52;3.05;;;1.35;;
46116;SDS011;32591;48.102;11.772;2023-02-19T01:31:19;2.17;;;0.90;;
46116;SDS011;32591;48.102;11.772;2023-02-19T01:33:49;2.05;;;1.10;;
46116;SDS011;32591;48.102;11.772;2023-02-19T01:36:19;2.85;;;1.23;;
46116;SDS011;32591;48.102;11.772;2023-02-19T01:38:46;2.17;;;1.10;;
46116;SDS011;32591;48.102;11.772;2023-02-19T01:41:16;1.40;;;0.88;;
46116;SDS011;32591;48.102;11.772;2023-02-19T01:43:54;3.65;;;1.10;;
46116;SDS011;32591;48.102;11.772;2023-02-19T01:46:25;1.73;;;1.10;;
46116;SDS011;32591;48.102;11.772;2023-02-19T01:48:54;2.67;;;1.25;;
46116;SDS011;32591;48.102;11.772;2023-02-19T01:51:24;3.03;;;1.33;;
46116;SDS011;32591;48.102;11.772;2023-02-19T01:53:53;2.85;;;1.40;;
46116;SDS011;32591;48.102;11.772;2023-02-19T01:56:25;1.92;;;1.27;;
46116;SDS011;32591;48.102;11.772;2023-02-19T01:58:54;1.75;;;1.10;;
46116;SDS011;32591;48.102;11.772;2023-02-19T02:01:22;1.88;;;1.23;;
46116;SDS011;32591;48.102;11.772;2023-02-19T02:03:49;2.17;;;1.20;;
46116;SDS011;32591;48.102;11.772;2023-02-19T02:06:18;2.47;;;1.33;;
46116;SDS011;32591;48.102;11.772;2023-02-19T02:08:50;3.72;;;1.30;;
46116;SDS011;32591;48.102;11.772;2023-02-19T02:11:39;4.03;;;1.30;;
46116;SDS011;32591;48.102;11.772;2023-02-19T02:14:10;1.63;;;0.88;;
46116;SDS011;32591;48.102;11.772;2023-02-19T02:16:40;2.38;;;1.02;;
46116;SDS011;32591;48.102;11.772;2023-02-19T02:19:25;1.75;;;1.15;;
46116;SDS011;32591;48.102;11.772;2023-02-19T02:22:08;1.90;;;1.20;;
46116;SDS011;32591;48.102;11.772;2023-02-19T02:24:49;1.48;;;1.13;;
46116;SDS011;32591;48.102;11.772;2023-02-19T02:27:50;2.00;;;1.30;;
46116;SDS011;32591;48.102;11.772;2023-02-19T02:30:32;2.00;;;1.30;;
46116;SDS011;32591;48.102;11.772;2023-02-19T02:33:07;1.20;;;1.00;;
46116;SDS011;32591;48.102;11.772;2023-02-19T02:35:46;2.53;;;1.30;;
46116;SDS011;32591;48.102;11.772;2023-02-19T02:38:17;3.22;;;1.30;;
46116;SDS011;32591;48.102;11.772;2023-02-19T02:40:49;2.40;;;1.52;;
46116;SDS011;32591;48.102;11.772;2023-02-19T02:43:17;3.42;;;1.50;;
46116;SDS011;32591;48.102;11.772;2023-02-19T02:45:46;3.78;;;1.60;;
46116;SDS011;32591;48.102;11.772;2023-02-19T02:48:15;3.25;;;1.75;;
46116;SDS011;32591;48.102;11.772;2023-02-19T02:50:51;2.13;;;1.33;;
46116;SDS011;32591;48.102;11.772;2023-02-19T02:53:22;2.53;;;1.30;;
46116;SDS011;32591;48.102;11.772;2023-02-19T02:56:12;1.70;;;1.25;;
46116;SDS011;32591;48.102;11.772;2023-02-19T02:58:41;2.30;;;1.42;;
46116;SDS011;32591;48.102;11.772;2023-02-19T03:01:13;3.47;;;1.65;;
46116;SDS011;32591;48.102;11.772;2023-02-19T03:04:02;3.25;;;1.70;;
46116;SDS011;32591;48.102;11.772;2023-02-19T03:06:35;2.60;;;1.40;;
46116;SDS011;32591;48.102;11.772;2023-02-19T03:09:05;3.10;;;1.90;;
46116;SDS011;32591;48.102;11.772;2023-02-19T03:11:37;3.47;;;1.92;;
46116;SDS011;32591;48.102;11.772;2023-02-19T03:14:26;3.38;;;1.67;;
46116;SDS011;32591;48.102;11.772;2023-02-19T03:17:21;3.13;;;1.70;;
46116;SDS011;32591;48.102;11.772;2023-02-19T03:20:13;3.05;;;1.67;;
46116;SDS011;32591;48.102;11.772;2023-02-19T03:22:45;3.03;;;1.73;;
46116;SDS011;32591;48.102;11.772;2023-02-19T03:25:14;6.60;;;2.03;;
46116;SDS011;32591;48.102;11.772;2023-02-19T03:28:03;2.88;;;1.80;;
46116;SDS011;32591;48.102;11.772;2023-02-19T03:30:34;3.88;;;1.77;;
46116;SDS011;32591;48.102;11.772;2023-02-19T03:33:08;6.45;;;1.90;;
46116;SDS011;32591;48.102;11.772;2023-02-19T03:35:41;3.70;;;2.05;;
46116;SDS011;32591;48.102;11.772;2023-02-19T03:38:13;2.92;;;1.90;;
46116;SDS011;32591;48.102;11.772;2023-02-19T03:40:49;3.83;;;2.30;;
46116;SDS011;32591;48.102;11.772;2023-02-19T03:43:23;4.25;;;2.55;;
46116;SDS011;32591;48.102;11.772;2023-02-19T03:46:02;3.47;;;2.45;;
46116;SDS011;32591;48.102;11.772;2023-02-19T03:48:36;4.40;;;2.53;;
46116;SDS011;32591;48.102;11.772;2023-02-19T03:51:14;3.88;;;2.17;;
46116;SDS011;32591;48.102;11.772;2023-02-19T03:53:54;3.97;;;2.30;;
46116;SDS011;32591;48.102;11.772;2023-02-19T03:56:34;4.53;;;2.60;;
46116;SDS011;32591;48.102;11.772;2023-02-19T03:59:08;6.43;;;2.63;;
46116;SDS011;32591;48.102;11.772;2023-02-19T04:01:40;6.07;;;2.50;;
46116;SDS011;32591;48.102;11.772;2023-02-19T04:04:14;4.90;;;2.60;;
46116;SDS011;32591;48.102;11.772;2023-02-19T04:06:44;4.72;;;2.40;;
46116;SDS011;32591;48.102;11.772;2023-02-19T04:09:17;4.05;;;2.50;;
46116;SDS011;32591;48.102;11.772;2023-02-19T04:11:47;5.47;;;2.60;;
46116;SDS011;32591;48.102;11.772;2023-02-19T04:14:17;5.07;;;2.75;;
46116;SDS011;32591;48.102;11.772;2023-02-19T04:16:49;5.10;;;2.63;;
46116;SDS011;32591;48.102;11.772;2023-02-19T04:19:22;5.13;;;2.67;;
46116;SDS011;32591;48.102;11.772;2023-02-19T04:21:52;3.85;;;2.55;;
46116;SDS011;32591;48.102;11.772;2023-02-19T04:24:22;3.60;;;2.42;;
46116;SDS011;32591;48.102;11.772;2023-02-19T04:26:53;5.25;;;2.90;;
46116;SDS011;32591;48.102;11.772;2023-02-19T04:29:21;2.83;;;2.03;;
46116;SDS011;32591;48.102;11.772;2023-02-19T04:34:15;4.20;;;2.50;;
46116;SDS011;32591;48.102;11.772;2023-02-19T04:39:10;4.18;;;2.00;;
46116;SDS011;32591;48.102;11.772;2023-02-19T04:44:04;4.82;;;2.20;;
46116;SDS011;32591;48.102;11.772;2023-02-19T04:46:31;5.10;;;2.65;;
46116;SDS011;32591;48.102;11.772;2023-02-19T04:48:58;5.25;;;2.30;;
46116;SDS011;32591;48.102;11.772;2023-02-19T04:53:53;3.72;;;2.10;;
46116;SDS011;32591;48.102;11.772;2023-02-19T04:56:20;4.68;;;2.45;;
46116;SDS011;32591;48.102;11.772;2023-02-19T05:01:14;6.47;;;2.30;;
46116;SDS011;32591;48.102;11.772;2023-02-19T05:03:41;2.95;;;1.80;;
46116;SDS011;32591;48.102;11.772;2023-02-19T05:06:09;4.78;;;2.28;;
46116;SDS011;32591;48.102;11.772;2023-02-19T05:08:38;2.92;;;2.13;;
46116;SDS011;32591;48.102;11.772;2023-02-19T05:11:08;3.00;;;1.90;;
46116;SDS011;32591;48.102;11.772;2023-02-19T05:13:37;2.85;;;1.80;;
46116;SDS011;32591;48.102;11.772;2023-02-19T05:16:05;3.22;;;1.95;;
46116;SDS011;32591;48.102;11.772;2023-02-19T05:18:38;3.60;;;2.28;;
46116;SDS011;32591;48.102;11.772;2023-02-19T05:21:06;3.42;;;2.10;;
46116;SDS011;32591;48.102;11.772;2023-02-19T05:23:33;5.13;;;1.77;;
46116;SDS011;32591;48.102;11.772;2023-02-19T05:26:03;4.47;;;1.95;;
46116;SDS011;32591;48.102;11.772;2023-02-19T05:28:32;3.47;;;1.85;;
46116;SDS011;32591;48.102;11.772;2023-02-19T05:31:03;3.65;;;1.80;;
46116;SDS011;32591;48.102;11.772;2023-02-19T05:33:32;2.80;;;1.85;;
46116;SDS011;32591;48.102;11.772;2023-02-19T05:36:03;5.60;;;1.92;;
46116;SDS011;32591;48.102;11.772;2023-02-19T05:38:32;5.03;;;2.25;;
46116;SDS011;32591;48.102;11.772;2023-02-19T05:41:09;3.65;;;2.20;;
46116;SDS011;32591;48.102;11.772;2023-02-19T05:43:40;4.45;;;1.90;;
46116;SDS011;32591;48.102;11.772;2023-02-19T05:46:09;2.72;;;1.85;;
46116;SDS011;32591;48.102;11.772;2023-02-19T05:48:39;2.85;;;1.80;;
46116;SDS011;32591;48.102;11.772;2023-02-19T05:51:07;2.75;;;1.75;;
46116;SDS011;32591;48.102;11.772;2023-02-19T05:53:37;3.15;;;1.48;;
46116;SDS011;32591;48.102;11.772;2023-02-19T05:56:04;3.20;;;1.70;;
46116;SDS011;32591;48.102;11.772;2023-02-19T05:58:51;3.65;;;1.58;;
46116;SDS011;32591;48.102;11.772;2023-02-19T06:01:21;3.40;;;1.70;;
46116;SDS011;32591;48.102;11.772;2023-02-19T06:03:51;2.20;;;1.48;;
46116;SDS011;32591;48.102;11.772;2023-02-19T06:06:18;3.72;;;1.73;;
46116;SDS011;32591;48.102;11.772;2023-02-19T06:08:46;6.35;;;1.45;;
46116;SDS011;32591;48.102;11.772;2023-02-19T06:11:14;2.85;;;1.85;;
46116;SDS011;32591;48.102;11.772;2023-02-19T06:13:42;2.28;;;1.52;;
46116;SDS011;32591;48.102;11.772;2023-02-19T06:16:10;2.20;;;1.55;;
46116;SDS011;32591;48.102;11.772;2023-02-19T06:18:38;3.10;;;1.45;;
46116;SDS011;32591;48.102;11.772;2023-02-19T06:21:06;2.58;;;1.40;;
46116;SDS011;32591;48.102;11.772;2023-02-19T06:23:34;2.38;;;1.48;;
46116;SDS011;32591;48.102;11.772;2023-02-19T06:26:09;3.25;;;1.60;;
46116;SDS011;32591;48.102;11.772;2023-02-19T06:28:38;1.85;;;1.25;;
46116;SDS011;32591;48.102;11.772;2023-02-19T06:31:06;1.60;;;1.40;;
46116;SDS011;32591;48.102;11.772;2023-02-19T06:33:37;3.33;;;1.40;;
46116;SDS011;32591;48.102;11.772;2023-02-19T06:36:05;2.55;;;1.60;;
46116;SDS011;32591;48.102;11.772;2023-02-19T06:38:36;2.63;;;1.35;;
46116;SDS011;32591;48.102;11.772;2023-02-19T06:45:58;2.08;;;1.35;;
46116;SDS011;32591;48.102;11.772;2023-02-19T06:48:26;2.58;;;1.42;;
46116;SDS011;32591;48.102;11.772;2023-02-19T06:50:55;1.50;;;1.15;;
46116;SDS011;32591;48.102;11.772;2023-02-19T06:53:22;2.22;;;1.30;;
46116;SDS011;32591;48.102;11.772;2023-02-19T06:55:56;3.17;;;1.70;;
46116;SDS011;32591;48.102;11.772;2023-02-19T06:58:23;2.47;;;1.45;;
46116;SDS011;32591;48.102;11.772;2023-02-19T07:00:51;3.35;;;1.70;;
46116;SDS011;32591;48.102;11.772;2023-02-19T07:03:19;2.25;;;1.25;;
46116;SDS011;32591;48.102;11.772;2023-02-19T07:05:46;5.40;;;2.53;;
46116;SDS011;32591;48.102;11.772;2023-02-19T07:08:15;1.85;;;1.10;;
46116;SDS011;32591;48.102;11.772;2023-02-19T07:10:42;1.55;;;1.00;;
46116;SDS011;32591;48.102;11.772;2023-02-19T07:13:09;3.50;;;1.50;;
46116;SDS011;32591;48.102;11.772;2023-02-19T07:15:36;3.55;;;1.55;;
46116;SDS011;32591;48.102;11.772;2023-02-19T07:18:03;2.35;;;1.63;;
46116;SDS011;32591;48.102;11.772;2023-02-19T07:20:34;2.75;;;1.60;;
46116;SDS011;32591;48.102;11.772;2023-02-19T07:23:02;4.03;;;1.63;;
46116;SDS011;32591;48.102;11.772;2023-02-19T07:25:30;2.10;;;1.40;;
46116;SDS011;32591;48.102;11.772;2023-02-19T07:27:57;2.67;;;1.42;;
46116;SDS011;32591;48.102;11.772;2023-02-19T07:32:50;2.78;;;1.88;;
46116;SDS011;32591;48.102;11.772;2023-02-19T07:37:44;1.52;;;1.25;;
46116;SDS011;32591;48.102;11.772;2023-02-19T07:42:39;2.92;;;1.52;;
46116;SDS011;32591;48.102;11.772;2023-02-19T07:45:06;2.15;;;1.52;;
46116;SDS011;32591;48.102;11.772;2023-02-19T07:47:33;3.30;;;1.90;;
46116;SDS011;32591;48.102;11.772;2023-02-19T07:50:00;2.78;;;1.70;;
46116;SDS011;32591;48.102;11.772;2023-02-19T07:52:27;2.63;;;1.42;;
46116;SDS011;32591;48.102;11.772;2023-02-19T07:54:54;3.67;;;1.70;;
46116;SDS011;32591;48.102;11.772;2023-02-19T07:57:21;2.25;;;1.83;;
46116;SDS011;32591;48.102;11.772;2023-02-19T08:05:03;2.78;;;1.60;;
46116;SDS011;32591;48.102;11.772;2023-02-19T08:07:31;3.22;;;1.60;;
46116;SDS011;32591;48.102;11.772;2023-02-19T08:09:58;2.08;;;1.27;;
46116;SDS011;32591;48.102;11.772;2023-02-19T08:12:39;1.90;;;1.30;;
46116;SDS011;32591;48.102;11.772;2023-02-19T08:15:25;2.53;;;1.40;;
46116;SDS011;32591;48.102;11.772;2023-02-19T08:17:52;2.78;;;1.40;;
46116;SDS011;32591;48.102;11.772;2023-02-19T08:22:46;3.78;;;1.80;;
46116;SDS011;32591;48.102;11.772;2023-02-19T08:27:40;4.95;;;2.15;;
46116;SDS011;32591;48.102;11.772;2023-02-19T08:32:36;3.17;;;1.65;;
46116;SDS011;32591;48.102;11.772;2023-02-19T08:35:03;3.17;;;1.88;;
46116;SDS011;32591;48.102;11.772;2023-02-19T08:37:31;3.95;;;1.90;;
46116;SDS011;32591;48.102;11.772;2023-02-19T08:39:58;2.28;;;1.40;;
46116;SDS011;32591;48.102;11.772;2023-02-19T08:42:25;3.30;;;1.90;;
46116;SDS011;32591;48.102;11.772;2023-02-19T08:44:53;2.50;;;1.67;;
46116;SDS011;32591;48.102;11.772;2023-02-19T08:47:20;2.10;;;1.30;;
46116;SDS011;32591;48.102;11.772;2023-02-19T08:54:42;2.60;;;1.60;;
46116;SDS011;32591;48.102;11.772;2023-02-19T08:59:36;3.20;;;1.98;;
46116;SDS011;32591;48.102;11.772;2023-02-19T09:04:29;2.08;;;1.40;;
46116;SDS011;32591;48.102;11.772;2023-02-19T09:06:58;6.28;;;1.92;;
46116;SDS011;32591;48.102;11.772;2023-02-19T09:09:25;3.83;;;1.80;;
46116;SDS011;32591;48.102;11.772;2023-02-19T09:11:52;3.13;;;1.75;;
46116;SDS011;32591;48.102;11.772;2023-02-19T09:14:19;3.63;;;1.85;;
46116;SDS011;32591;48.102;11.772;2023-02-19T09:19:12;2.78;;;1.58;;
46116;SDS011;32591;48.102;11.772;2023-02-19T09:21:39;3.38;;;1.88;;
46116;SDS011;32591;48.102;11.772;2023-02-19T09:24:09;2.75;;;1.70;;
46116;SDS011;32591;48.102;11.772;2023-02-19T09:26:36;2.67;;;1.50;;
46116;SDS011;32591;48.102;11.772;2023-02-19T09:31:30;2.83;;;1.70;;
46116;SDS011;32591;48.102;11.772;2023-02-19T09:33:59;2.88;;;1.60;;
46116;SDS011;32591;48.102;11.772;2023-02-19T09:36:26;3.20;;;1.60;;
46116;SDS011;32591;48.102;11.772;2023-02-19T09:41:22;1.80;;;1.48;;
46116;SDS011;32591;48.102;11.772;2023-02-19T09:43:54;2.05;;;0.85;;
46116;SDS011;32591;48.102;11.772;2023-02-19T09:46:25;0.98;;;0.57;;
46116;SDS011;32591;48.102;11.772;2023-02-19T09:48:57;1.23;;;0.50;;
46116;SDS011;32591;48.102;11.772;2023-02-19T09:51:30;0.60;;;0.60;;
46116;SDS011;32591;48.102;11.772;2023-02-19T09:54:00;0.60;;;0.50;;
46116;SDS011;32591;48.102;11.772;2023-02-19T09:56:30;0.65;;;0.40;;
46116;SDS011;32591;48.102;11.772;2023-02-19T09:58:58;0.88;;;0.50;;
46116;SDS011;32591;48.102;11.772;2023-02-19T10:01:27;0.57;;;0.30;;
46116;SDS011;32591;48.102;11.772;2023-02-19T10:03:59;0.63;;;0.50;;
46116;SDS011;32591;48.102;11.772;2023-02-19T10:08:55;0.32;;;0.17;;
46116;SDS011;32591;48.102;11.772;2023-02-19T10:11:40;0.95;;;0.47;;
46116;SDS011;32591;48.102;11.772;2023-02-19T10:14:11;1.85;;;0.40;;
46116;SDS011;32591;48.102;11.772;2023-02-19T10:16:43;0.93;;;0.30;;
46116;SDS011;32591;48.102;11.772;2023-02-19T10:19:14;0.40;;;0.30;;
46116;SDS011;32591;48.102;11.772;2023-02-19T10:21:41;1.65;;;0.70;;
46116;SDS011;32591;48.102;11.772;2023-02-19T10:24:11;1.75;;;0.52;;
46116;SDS011;32591;48.102;11.772;2023-02-19T10:26:43;1.08;;;0.70;;
46116;SDS011;32591;48.102;11.772;2023-02-19T10:29:10;1.38;;;0.50;;
46116;SDS011;32591;48.102;11.772;2023-02-19T10:31:37;1.40;;;0.75;;
46116;SDS011;32591;48.102;11.772;2023-02-19T10:34:04;0.40;;;0.40;;
46116;SDS011;32591;48.102;11.772;2023-02-19T10:36:46;1.80;;;0.70;;
46116;SDS011;32591;48.102;11.772;2023-02-19T10:39:25;2.55;;;0.63;;
46116;SDS011;32591;48.102;11.772;2023-02-19T10:42:14;0.57;;;0.43;;
46116;SDS011;32591;48.102;11.772;2023-02-19T10:44:44;0.80;;;0.70;;
46116;SDS011;32591;48.102;11.772;2023-02-19T10:47:18;2.75;;;0.95;;
46116;SDS011;32591;48.102;11.772;2023-02-19T10:49:48;0.82;;;0.50;;
46116;SDS011;32591;48.102;11.772;2023-02-19T10:52:18;0.43;;;0.40;;
46116;SDS011;32591;48.102;11.772;2023-02-19T10:54:48;1.92;;;0.70;;
46116;SDS011;32591;48.102;11.772;2023-02-19T10:57:26;0.55;;;0.40;;
46116;SDS011;32591;48.102;11.772;2023-02-19T10:59:57;0.68;;;0.40;;
46116;SDS011;32591;48.102;11.772;2023-02-19T11:02:28;1.40;;;0.73;;
46116;SDS011;32591;48.102;11.772;2023-02-19T11:05:14;1.05;;;0.50;;
46116;SDS011;32591;48.102;11.772;2023-02-19T11:07:45;1.02;;;0.45;;
46116;SDS011;32591;48.102;11.772;2023-02-19T11:10:18;1.33;;;0.40;;
46116;SDS011;32591;48.102;11.772;2023-02-19T11:12:54;0.95;;;0.30;;
46116;SDS011;32591;48.102;11.772;2023-02-19T11:15:25;0.45;;;0.30;;
46116;SDS011;32591;48.102;11.772;2023-02-19T11:17:59;1.67;;;0.55;;
46116;SDS011;32591;48.102;11.772;2023-02-19T11:20:30;1.05;;;0.50;;
46116;SDS011;32591;48.102;11.772;2023-02-19T11:22:58;0.95;;;0.63;;
46116;SDS011;32591;48.102;11.772;2023-02-19T11:25:32;0.30;;;0.30;;
46116;SDS011;32591;48.102;11.772;2023-02-19T11:28:03;0.70;;;0.50;;
46116;SDS011;32591;48.102;11.772;2023-02-19T11:30:34;0.73;;;0.43;;
46116;SDS011;32591;48.102;11.772;2023-02-19T11:35:53;0.45;;;0.25;;
46116;SDS011;32591;48.102;11.772;2023-02-19T11:38:41;0.40;;;0.40;;
46116;SDS011;32591;48.102;11.772;2023-02-19T11:41:09;0.95;;;0.75;;
46116;SDS011;32591;48.102;11.772;2023-02-19T11:43:54;1.77;;;0.65;;
46116;SDS011;32591;48.102;11.772;2023-02-19T11:46:36;2.35;;;0.30;;
46116;SDS011;32591;48.102;11.772;2023-02-19T11:49:14;0.88;;;0.40;;
46116;SDS011;32591;48.102;11.772;2023-02-19T11:52:05;1.38;;;0.40;;
46116;SDS011;32591;48.102;11.772;2023-02-19T11:54:49;1.35;;;0.60;;
46116;SDS011;32591;48.102;11.772;2023-02-19T12:00:17;0.28;;;0.28;;
46116;SDS011;32591;48.102;11.772;2023-02-19T12:06:10;2.35;;;0.60;;
46116;SDS011;32591;48.102;11.772;2023-02-19T12:08:54;0.65;;;0.40;;
46116;SDS011;32591;48.102;11.772;2023-02-19T12:11:58;1.08;;;0.55;;
46116;SDS011;32591;48.102;11.772;2023-02-19T12:17:35;1.90;;;0.75;;
46116;SDS011;32591;48.102;11.772;2023-02-19T12:20:21;0.80;;;0.30;;
46116;SDS011;32591;48.102;11.772;2023-02-19T12:22:59;2.63;;;0.90;;
46116;SDS011;32591;48.102;11.772;2023-02-19T12:25:54;1.95;;;0.68;;
46116;SDS011;32591;48.102;11.772;2023-02-19T12:31:33;2.83;;;1.00;;
46116;SDS011;32591;48.102;11.772;2023-02-19T12:34:44;0.80;;;0.60;;
46116;SDS011;32591;48.102;11.772;2023-02-19T12:37:32;1.73;;;1.00;;
46116;SDS011;32591;48.102;11.772;2023-02-19T12:40:13;1.90;;;1.05;;
46116;SDS011;32591;48.102;11.772;2023-02-19T12:42:55;1.48;;;0.85;;
46116;SDS011;32591;48.102;11.772;2023-02-19T12:45:38;0.95;;;0.80;;
46116;SDS011;32591;48.102;11.772;2023-02-19T12:48:11;1.60;;;0.75;;
46116;SDS011;32591;48.102;11.772;2023-02-19T12:50:49;1.23;;;0.80;;
46116;SDS011;32591;48.102;11.772;2023-02-19T12:53:28;0.63;;;0.43;;
46116;SDS011;32591;48.102;11.772;2023-02-19T12:56:04;1.98;;;0.90;;
46116;SDS011;32591;48.102;11.772;2023-02-19T12:58:38;1.23;;;0.70;;
46116;SDS011;32591;48.102;11.772;2023-02-19T13:01:10;2.17;;;0.95;;
46116;SDS011;32591;48.102;11.772;2023-02-19T13:03:46;0.73;;;0.63;;
46116;SDS011;32591;48.102;11.772;2023-02-19T13:06:25;0.40;;;0.38;;
46116;SDS011;32591;48.102;11.772;2023-02-19T13:09:01;1.65;;;0.68;;
46116;SDS011;32591;48.102;11.772;2023-02-19T13:11:34;1.95;;;1.05;;
46116;SDS011;32591;48.102;11.772;2023-02-19T13:14:10;2.28;;;1.52;;
46116;SDS011;32591;48.102;11.772;2023-02-19T13:16:45;2.25;;;1.42;;
46116;SDS011;32591;48.102;11.772;2023-02-19T13:19:16;1.98;;;0.95;;
46116;SDS011;32591;48.102;11.772;2023-02-19T13:24:32;0.95;;;0.70;;
46116;SDS011;32591;48.102;11.772;2023-02-19T13:27:12;1.65;;;0.90;;
46116;SDS011;32591;48.102;11.772;2023-02-19T13:29:59;2.28;;;1.10;;
46116;SDS011;32591;48.102;11.772;2023-02-19T13:32:52;3.25;;;1.25;;
46116;SDS011;32591;48.102;11.772;2023-02-19T13:35:36;2.38;;;1.20;;
46116;SDS011;32591;48.102;11.772;2023-02-19T13:38:32;2.55;;;0.80;;
46116;SDS011;32591;48.102;11.772;2023-02-19T13:41:05;1.48;;;0.95;;
46116;SDS011;32591;48.102;11.772;2023-02-19T13:43:52;1.80;;;0.90;;
46116;SDS011;32591;48.102;11.772;2023-02-19T13:46:22;0.93;;;0.60;;
46116;SDS011;32591;48.102;11.772;2023-02-19T14:04:59;2.72;;;0.60;;
46116;SDS011;32591;48.102;11.772;2023-02-19T14:07:33;2.72;;;1.10;;
46116;SDS011;32591;48.102;11.772;2023-02-19T14:16:31;1.33;;;0.85;;
46116;SDS011;32591;48.102;11.772;2023-02-19T14:19:14;0.55;;;0.50;;
46116;SDS011;32591;48.102;11.772;2023-02-19T14:25:19;1.35;;;0.80;;
46116;SDS011;32591;48.102;11.772;2023-02-19T14:30:44;1.60;;;0.70;;
46116;SDS011;32591;48.102;11.772;2023-02-19T14:33:17;2.03;;;0.70;;
46116;SDS011;32591;48.102;11.772;2023-02-19T14:35:48;2.53;;;0.90;;
46116;SDS011;32591;48.102;11.772;2023-02-19T14:38:20;1.00;;;0.40;;
46116;SDS011;32591;48.102;11.772;2023-02-19T14:40:51;3.25;;;1.00;;
46116;SDS011;32591;48.102;11.772;2023-02-19T14:43:21;4.13;;;1.90;;
46116;SDS011;32591;48.102;11.772;2023-02-19T14:45:51;0.57;;;0.47;;
46116;SDS011;32591;48.102;11.772;2023-02-19T14:48:22;2.67;;;1.48;;
46116;SDS011;32591;48.102;11.772;2023-02-19T14:50:54;2.13;;;1.20;;
46116;SDS011;32591;48.102;11.772;2023-02-19T14:53:27;2.47;;;0.85;;
46116;SDS011;32591;48.102;11.772;2023-02-19T14:55:56;1.80;;;0.88;;
46116;SDS011;32591;48.102;11.772;2023-02-19T14:58:28;2.13;;;0.68;;
46116;SDS011;32591;48.102;11.772;2023-02-19T15:00:57;0.73;;;0.50;;
46116;SDS011;32591;48.102;11.772;2023-02-19T15:03:26;2.08;;;1.20;;
46116;SDS011;32591;48.102;11.772;2023-02-19T15:05:58;1.52;;;0.50;;
46116;SDS011;32591;48.102;11.772;2023-02-19T15:08:33;2.78;;;1.40;;
46116;SDS011;32591;48.102;11.772;2023-02-19T15:11:03;1.80;;;0.88;;
46116;SDS011;32591;48.102;11.772;2023-02-19T15:13:37;0.80;;;0.70;;
46116;SDS011;32591;48.102;11.772;2023-02-19T15:16:10;2.40;;;1.08;;
46116;SDS011;32591;48.102;11.772;2023-02-19T15:18:43;3.85;;;1.10;;
46116;SDS011;32591;48.102;11.772;2023-02-19T15:21:16;5.72;;;1.60;;
46116;SDS011;32591;48.102;11.772;2023-02-19T15:23:49;1.42;;;0.80;;
46116;SDS011;32591;48.102;11.772;2023-02-19T15:26:19;1.83;;;0.65;;
46116;SDS011;32591;48.102;11.772;2023-02-19T15:28:57;2.30;;;1.30;;
46116;SDS011;32591;48.102;11.772;2023-02-19T15:31:26;1.47;;;1.00;;
46116;SDS011;32591;48.102;11.772;2023-02-19T15:33:54;2.28;;;1.00;;
46116;SDS011;32591;48.102;11.772;2023-02-19T15:36:25;1.40;;;0.77;;
46116;SDS011;32591;48.102;11.772;2023-02-19T15:38:56;2.55;;;0.90;;
46116;SDS011;32591;48.102;11.772;2023-02-19T15:41:26;2.42;;;1.10;;
46116;SDS011;32591;48.102;11.772;2023-02-19T15:44:00;2.08;;;0.70;;
46116;SDS011;32591;48.102;11.772;2023-02-19T15:46:41;1.50;;;0.70;;
46116;SDS011;32591;48.102;11.772;2023-02-19T15:49:12;1.10;;;0.60;;
46116;SDS011;32591;48.102;11.772;2023-02-19T15:51:44;1.48;;;0.75;;
46116;SDS011;32591;48.102;11.772;2023-02-19T15:54:16;2.05;;;0.80;;
46116;SDS011;32591;48.102;11.772;2023-02-19T15:56:50;6.78;;;1.30;;
46116;SDS011;32591;48.102;11.772;2023-02-19T15:59:21;0.82;;;0.70;;
46116;SDS011;32591;48.102;11.772;2023-02-19T16:01:55;3.28;;;1.50;;
46116;SDS011;32591;48.102;11.772;2023-02-19T16:04:22;2.13;;;0.90;;
46116;SDS011;32591;48.102;11.772;2023-02-19T16:06:50;5.40;;;1.33;;
46116;SDS011;32591;48.102;11.772;2023-02-19T16:09:22;1.15;;;0.80;;
46116;SDS011;32591;48.102;11.772;2023-02-19T16:11:56;3.00;;;0.85;;
46116;SDS011;32591;48.102;11.772;2023-02-19T16:14:28;1.70;;;1.10;;
46116;SDS011;32591;48.102;11.772;2023-02-19T16:16:58;0.90;;;0.52;;
46116;SDS011;32591;48.102;11.772;2023-02-19T16:19:41;3.05;;;1.40;;
46116;SDS011;32591;48.102;11.772;2023-02-19T16:22:13;3.22;;;0.93;;
46116;SDS011;32591;48.102;11.772;2023-02-19T16:24:44;2.15;;;1.17;;
46116;SDS011;32591;48.102;11.772;2023-02-19T16:27:24;3.08;;;1.05;;
46116;SDS011;32591;48.102;11.772;2023-02-19T16:29:56;2.58;;;1.20;;
46116;SDS011;32591;48.102;11.772;2023-02-19T16:32:24;2.08;;;0.80;;
46116;SDS011;32591;48.102;11.772;2023-02-19T16:34:51;1.60;;;0.57;;
46116;SDS011;32591;48.102;11.772;2023-02-19T16:37:28;2.28;;;1.00;;
46116;SDS011;32591;48.102;11.772;2023-02-19T16:40:24;1.33;;;1.02;;
46116;SDS011;32591;48.102;11.772;2023-02-19T16:43:30;4.25;;;1.08;;
46116;SDS011;32591;48.102;11.772;2023-02-19T16:46:07;4.70;;;1.50;;
46116;SDS011;32591;48.102;11.772;2023-02-19T16:48:36;2.40;;;1.15;;